createdAt,value
2023-05-20T00:02:39.656Z,18.98
2023-05-20T00:06:01.558Z,19.31
2023-05-20T00:09:25.515Z,18.57
2023-05-20T00:12:48.573Z,18.30
2023-05-20T00:16:10.555Z,17.99
2023-05-20T00:19:32.545Z,17.67
2023-05-20T00:22:54.576Z,17.76
2023-05-20T00:26:16.563Z,17.64
2023-05-20T00:29:37.205Z,17.59
2023-05-20T00:32:54.597Z,17.83
2023-05-20T00:36:16.549Z,18.21
2023-05-20T00:39:39.576Z,17.98
2023-05-20T00:43:01.543Z,17.89
2023-05-20T00:46:25.629Z,17.84
2023-05-20T00:49:50.337Z,17.89
2023-05-20T00:53:13.588Z,17.33
2023-05-20T00:56:35.565Z,16.98
2023-05-20T00:59:58.576Z,17.19
2023-05-20T01:03:20.783Z,17.14
2023-05-20T01:06:45.576Z,17.26
2023-05-20T01:10:07.576Z,17.12
2023-05-20T01:13:31.575Z,17.23
2023-05-20T01:16:53.594Z,17.43
2023-05-20T01:20:17.552Z,17.63
2023-05-20T01:23:39.600Z,17.64
2023-05-20T01:27:02.602Z,17.59
2023-05-20T01:30:25.600Z,17.59
2023-05-20T01:33:49.592Z,18.00
2023-05-20T01:37:13.606Z,17.65
2023-05-20T01:40:36.566Z,17.61
2023-05-20T01:44:00.598Z,17.51
2023-05-20T01:47:23.684Z,17.44
2023-05-20T01:50:47.702Z,17.39
2023-05-20T01:54:09.582Z,17.44
2023-05-20T01:57:36.601Z,17.40
2023-05-20T02:00:59.617Z,17.25
2023-05-20T02:04:21.601Z,17.42
2023-05-20T02:07:43.567Z,17.45
2023-05-20T02:11:05.606Z,17.57
2023-05-20T02:14:28.611Z,17.62
2023-05-20T02:17:57.605Z,17.55
2023-05-20T02:21:19.687Z,17.34
2023-05-20T02:24:43.698Z,17.28
2023-05-20T02:28:05.753Z,17.14
2023-05-20T02:31:22.966Z,17.30
2023-05-20T02:34:40.635Z,17.31
2023-05-20T02:38:03.563Z,17.26
2023-05-20T02:41:25.724Z,17.35
2023-05-20T02:44:49.601Z,17.04
2023-05-20T02:48:12.728Z,16.76
2023-05-20T02:51:35.637Z,16.76
2023-05-20T02:54:57.632Z,16.68
2023-05-20T02:58:21.701Z,16.50
2023-05-20T03:01:44.772Z,16.45
2023-05-20T03:05:06.722Z,16.54
2023-05-20T03:08:28.696Z,16.39
2023-05-20T03:11:50.722Z,16.48
2023-05-20T03:15:13.641Z,16.61
2023-05-20T03:18:36.674Z,16.68
2023-05-20T03:21:59.629Z,16.58
2023-05-20T03:25:21.727Z,16.56
2023-05-20T03:28:45.655Z,16.60
2023-05-20T03:32:08.746Z,16.47
2023-05-20T03:35:34.843Z,16.58
2023-05-20T03:38:57.654Z,16.52
2023-05-20T03:42:22.619Z,16.59
2023-05-20T03:45:44.650Z,16.56
2023-05-20T03:49:07.632Z,16.68
2023-05-20T03:52:29.669Z,16.73
2023-05-20T03:55:52.646Z,16.74
2023-05-20T03:59:14.650Z,16.75
2023-05-20T04:02:37.787Z,16.79
2023-05-20T04:06:02.632Z,16.77
2023-05-20T04:09:25.644Z,16.84
2023-05-20T04:12:47.642Z,16.85
2023-05-20T04:16:13.705Z,16.91
2023-05-20T04:19:36.674Z,16.80
2023-05-20T04:23:00.635Z,16.79
2023-05-20T04:26:24.661Z,16.86
2023-05-20T04:29:49.650Z,16.93
2023-05-20T04:33:12.660Z,16.91
2023-05-20T04:36:38.648Z,16.83
2023-05-20T04:40:01.647Z,16.74
2023-05-20T04:43:25.682Z,16.58
2023-05-20T04:46:49.666Z,16.51
2023-05-20T04:50:12.666Z,16.25
2023-05-20T04:53:35.659Z,16.21
2023-05-20T04:56:58.693Z,16.24
2023-05-20T05:00:21.625Z,16.26
2023-05-20T05:03:43.690Z,16.20
2023-05-20T05:07:06.655Z,16.09
2023-05-20T05:10:29.664Z,16.05
2023-05-20T05:13:51.638Z,16.03
2023-05-20T05:17:15.693Z,15.97
2023-05-20T05:20:39.686Z,16.05
2023-05-20T05:24:02.904Z,16.16
2023-05-20T05:27:25.654Z,16.29
2023-05-20T05:30:49.668Z,16.26
2023-05-20T05:34:11.658Z,16.32
2023-05-20T05:37:34.652Z,16.32
2023-05-20T05:40:58.685Z,16.28
2023-05-20T05:44:23.673Z,16.14
2023-05-20T05:47:46.709Z,16.02
2023-05-20T05:51:09.662Z,16.00
2023-05-20T05:54:31.713Z,15.92
2023-05-20T05:57:55.660Z,15.94
2023-05-20T06:01:18.778Z,15.92
2023-05-20T06:04:42.717Z,15.98
2023-05-20T06:08:06.719Z,16.02
2023-05-20T06:11:30.652Z,16.08
2023-05-20T06:14:53.709Z,16.16
2023-05-20T06:18:16.664Z,16.15
2023-05-20T06:21:41.786Z,16.14
2023-05-20T06:25:08.707Z,16.13
2023-05-20T06:28:30.670Z,16.19
2023-05-20T06:31:53.711Z,16.24
2023-05-20T06:35:09.902Z,16.25
2023-05-20T06:38:26.692Z,16.33
2023-05-20T06:41:49.700Z,16.19
2023-05-20T06:45:22.720Z,16.24
2023-05-20T06:48:53.708Z,16.27
2023-05-20T06:52:17.993Z,16.30
2023-05-20T06:55:41.691Z,16.23
2023-05-20T06:59:05.755Z,16.05
2023-05-20T07:02:29.711Z,15.85
2023-05-20T07:05:52.719Z,15.86
2023-05-20T07:09:14.706Z,15.91
2023-05-20T07:12:37.087Z,15.96
2023-05-20T07:16:03.704Z,15.96
2023-05-20T07:19:28.828Z,15.91
2023-05-20T07:22:52.727Z,16.01
2023-05-20T07:26:44.700Z,16.08
2023-05-20T07:30:01.741Z,15.95
2023-05-20T07:33:25.786Z,15.83
2023-05-20T07:36:42.365Z,15.82
2023-05-20T07:39:59.748Z,15.81
2023-05-20T07:43:23.685Z,15.81
2023-05-20T07:46:46.728Z,15.79
2023-05-20T07:50:10.726Z,15.68
2023-05-20T07:53:32.726Z,15.63
2023-05-20T07:56:56.755Z,15.58
2023-05-20T08:00:21.724Z,15.87
2023-05-20T08:03:49.900Z,15.94
2023-05-20T08:07:13.731Z,15.93
2023-05-20T08:10:41.783Z,15.65
2023-05-20T08:14:03.720Z,15.65
2023-05-20T08:17:30.806Z,15.75
2023-05-20T08:20:54.721Z,15.84
2023-05-20T08:24:17.826Z,15.95
2023-05-20T08:27:41.753Z,16.09
2023-05-20T08:31:05.788Z,15.96
2023-05-20T08:34:30.749Z,15.98
2023-05-20T08:37:52.728Z,15.98
2023-05-20T08:41:15.724Z,15.89
2023-05-20T08:44:38.786Z,16.33
2023-05-20T08:48:01.792Z,16.25
2023-05-20T08:51:24.781Z,16.28
2023-05-20T08:55:12.738Z,16.32
2023-05-20T08:58:35.798Z,16.39
2023-05-20T09:01:57.779Z,16.46
2023-05-20T09:05:19.885Z,16.45
2023-05-20T09:08:42.764Z,16.46
2023-05-20T09:12:04.776Z,16.29
2023-05-20T09:15:28.839Z,16.29
2023-05-20T09:18:54.853Z,16.21
2023-05-20T09:22:16.772Z,16.15
2023-05-20T09:25:38.787Z,15.96
2023-05-20T09:29:01.766Z,15.76
2023-05-20T09:32:27.793Z,15.69
2023-05-20T09:35:45.811Z,15.60
2023-05-20T09:39:04.699Z,15.56
2023-05-20T09:42:23.772Z,15.55
2023-05-20T09:45:46.779Z,15.51
2023-05-20T09:49:08.809Z,15.65
2023-05-20T09:52:31.758Z,15.70
2023-05-20T09:55:53.828Z,15.68
2023-05-20T09:59:15.749Z,15.69
2023-05-20T10:02:37.911Z,15.80
2023-05-20T10:06:20.765Z,15.81
2023-05-20T10:09:45.826Z,15.92
2023-05-20T10:13:19.764Z,15.92
2023-05-20T10:17:07.802Z,15.85
2023-05-20T10:20:30.788Z,15.83
2023-05-20T10:23:53.774Z,15.90
2023-05-20T10:27:20.813Z,16.01
2023-05-20T10:30:44.527Z,15.94
2023-05-20T10:34:08.924Z,15.93
2023-05-20T10:37:38.788Z,16.07
2023-05-20T10:41:00.844Z,16.09
2023-05-20T10:44:23.755Z,16.07
2023-05-20T10:47:46.931Z,16.02
2023-05-20T10:51:13.898Z,16.08
2023-05-20T10:54:37.798Z,16.12
2023-05-20T10:58:00.819Z,16.15
2023-05-20T11:01:22.812Z,16.15
2023-05-20T11:04:40.836Z,16.17
2023-05-20T11:08:04.434Z,16.12
2023-05-20T11:11:30.800Z,16.18
2023-05-20T11:14:52.816Z,16.17
2023-05-20T11:18:18.653Z,16.13
2023-05-20T11:21:41.788Z,16.08
2023-05-20T11:25:04.829Z,16.06
2023-05-20T11:28:29.788Z,16.11
2023-05-20T11:31:52.910Z,16.03
2023-05-20T11:35:14.850Z,16.09
2023-05-20T11:38:37.799Z,16.08
2023-05-20T11:41:59.836Z,16.04
2023-05-20T11:45:27.852Z,16.07
2023-05-20T11:48:52.864Z,15.97
2023-05-20T11:52:14.843Z,15.87
2023-05-20T11:55:37.806Z,15.80
2023-05-20T11:58:59.949Z,15.73
2023-05-20T12:02:21.847Z,15.69
2023-05-20T12:05:43.856Z,15.77
2023-05-20T12:09:06.873Z,15.76
2023-05-20T12:12:28.834Z,15.63
2023-05-20T12:15:52.978Z,15.49
2023-05-20T12:19:16.939Z,15.66
2023-05-20T12:22:48.818Z,15.67
2023-05-20T12:26:10.845Z,15.75
2023-05-20T12:29:33.819Z,15.74
2023-05-20T12:32:55.912Z,15.78
2023-05-20T12:36:18.799Z,15.76
2023-05-20T12:39:40.853Z,15.65
2023-05-20T12:43:03.840Z,15.71
2023-05-20T12:46:29.867Z,15.80
2023-05-20T12:49:52.831Z,15.70
2023-05-20T12:53:15.831Z,15.78
2023-05-20T12:56:38.847Z,15.73
2023-05-20T13:00:01.826Z,15.67
2023-05-20T13:03:24.920Z,15.75
2023-05-20T13:06:48.842Z,15.33
2023-05-20T13:10:11.899Z,15.22
2023-05-20T13:13:33.841Z,15.29
2023-05-20T13:16:56.896Z,14.96
2023-05-20T13:20:20.063Z,14.97
2023-05-20T13:23:43.988Z,14.93
2023-05-20T13:27:06.852Z,15.08
2023-05-20T13:30:28.871Z,15.05
2023-05-20T13:33:51.870Z,15.08
2023-05-20T13:37:14.910Z,15.02
2023-05-20T13:40:37.833Z,14.96
2023-05-20T13:44:00.916Z,14.97
2023-05-20T13:47:23.882Z,14.95
2023-05-20T13:50:45.901Z,14.93
2023-05-20T13:54:08.865Z,14.88
2023-05-20T13:57:31.870Z,14.93
2023-05-20T14:00:53.898Z,15.01
2023-05-20T14:04:15.850Z,15.03
2023-05-20T14:07:38.893Z,15.07
2023-05-20T14:11:03.872Z,15.03
2023-05-20T14:14:27.883Z,15.10
2023-05-20T14:17:49.895Z,15.01
2023-05-20T14:21:11.909Z,14.94
2023-05-20T14:24:34.878Z,15.06
2023-05-20T14:27:57.877Z,15.10
2023-05-20T14:31:19.894Z,15.22
2023-05-20T14:34:41.913Z,15.35
2023-05-20T14:38:04.863Z,15.26
2023-05-20T14:41:27.924Z,15.22
2023-05-20T14:44:45.739Z,15.10
2023-05-20T14:48:04.051Z,15.19
2023-05-20T14:51:26.886Z,15.23
2023-05-20T14:54:49.901Z,15.18
2023-05-20T14:58:12.888Z,15.16
2023-05-20T15:01:36.093Z,15.10
2023-05-20T15:04:57.855Z,15.01
2023-05-20T15:08:20.012Z,15.16
2023-05-20T15:11:42.871Z,15.03
2023-05-20T15:15:05.021Z,15.20
2023-05-20T15:18:27.921Z,15.15
2023-05-20T15:21:50.939Z,15.03
2023-05-20T15:25:13.924Z,15.13
2023-05-20T15:28:35.911Z,15.06
2023-05-20T15:31:59.887Z,15.04
2023-05-20T15:35:22.925Z,15.01
2023-05-20T15:38:45.884Z,15.06
2023-05-20T15:42:09.937Z,15.19
2023-05-20T15:45:26.674Z,15.15
2023-05-20T15:48:46.067Z,15.16
2023-05-20T15:52:08.917Z,15.36
2023-05-20T15:55:33.950Z,15.25
2023-05-20T15:58:56.904Z,15.14
2023-05-20T16:02:20.016Z,14.93
2023-05-20T16:05:42.969Z,14.91
2023-05-20T16:09:05.947Z,15.01
2023-05-20T16:12:28.929Z,14.93
2023-05-20T16:15:51.130Z,15.04
2023-05-20T16:19:13.991Z,14.99
2023-05-20T16:22:36.941Z,15.08
2023-05-20T16:25:58.943Z,14.94
2023-05-20T16:29:21.940Z,14.92
2023-05-20T16:32:43.990Z,14.99
2023-05-20T16:36:06.933Z,15.03
2023-05-20T16:39:29.907Z,14.92
2023-05-20T16:42:52.958Z,14.91
2023-05-20T16:46:09.644Z,14.78
2023-05-20T16:49:26.948Z,14.96
2023-05-20T16:52:49.944Z,14.92
2023-05-20T16:56:12.959Z,15.00
2023-05-20T16:59:37.926Z,14.87
2023-05-20T17:03:01.017Z,14.90
2023-05-20T17:06:22.970Z,14.77
2023-05-20T17:09:44.932Z,14.76
2023-05-20T17:13:07.003Z,14.76
2023-05-20T17:16:29.032Z,14.67
2023-05-20T17:19:50.956Z,14.57
2023-05-20T17:23:12.925Z,14.75
2023-05-20T17:26:34.953Z,14.80
2023-05-20T17:29:57.938Z,14.81
2023-05-20T17:33:20.088Z,14.70
2023-05-20T17:36:42.943Z,14.70
2023-05-20T17:40:06.040Z,14.71
2023-05-20T17:43:27.968Z,14.82
2023-05-20T17:46:50.974Z,14.65
2023-05-20T17:50:13.940Z,14.77
2023-05-20T17:53:37.077Z,14.74
2023-05-20T17:56:58.950Z,14.60
2023-05-20T18:00:24.036Z,14.67
2023-05-20T18:03:48.045Z,14.67
2023-05-20T18:07:11.981Z,14.53
2023-05-20T18:10:34.179Z,14.57
2023-05-20T18:13:57.971Z,14.57
2023-05-20T18:17:20.042Z,14.51
2023-05-20T18:20:42.950Z,14.27
2023-05-20T18:24:04.981Z,14.45
2023-05-20T18:27:29.026Z,14.66
2023-05-20T18:30:51.987Z,14.70
2023-05-20T18:34:14.984Z,14.65
2023-05-20T18:37:38.021Z,14.71
2023-05-20T18:41:00.980Z,14.73
2023-05-20T18:44:23.000Z,14.71
2023-05-20T18:47:39.646Z,14.81
2023-05-20T18:50:56.984Z,14.83
2023-05-20T18:54:20.009Z,14.81
2023-05-20T18:57:42.996Z,14.85
2023-05-20T19:01:05.990Z,14.75
2023-05-20T19:04:27.984Z,14.80
2023-05-20T19:07:51.012Z,14.88
2023-05-20T19:11:13.959Z,14.62
2023-05-20T19:14:37.030Z,14.72
2023-05-20T19:18:00.015Z,14.72
2023-05-20T19:21:22.042Z,14.88
2023-05-20T19:24:45.014Z,14.80
2023-05-20T19:28:07.023Z,14.84
2023-05-20T19:31:30.023Z,14.70
2023-05-20T19:34:53.016Z,14.71
2023-05-20T19:38:16.117Z,14.80
2023-05-20T19:41:38.027Z,14.75
2023-05-20T19:45:00.993Z,14.60
2023-05-20T19:48:18.528Z,14.71
2023-05-20T19:51:37.008Z,14.67
2023-05-20T19:55:00.002Z,14.69
2023-05-20T19:58:22.040Z,14.77
2023-05-20T20:01:45.117Z,15.02
2023-05-20T20:05:09.077Z,15.29
2023-05-20T20:08:31.025Z,15.48
2023-05-20T20:11:54.012Z,15.54
2023-05-20T20:15:17.095Z,15.21
2023-05-20T20:18:39.019Z,14.77
2023-05-20T20:22:01.053Z,14.75
2023-05-20T20:25:24.026Z,14.71
2023-05-20T20:28:46.050Z,14.60
2023-05-20T20:32:10.066Z,14.69
2023-05-20T20:35:32.020Z,14.70
2023-05-20T20:38:54.990Z,14.66
2023-05-20T20:42:12.069Z,14.92
2023-05-20T20:45:36.233Z,16.53
2023-05-20T20:48:58.031Z,18.57
2023-05-20T20:52:21.026Z,16.51
2023-05-20T20:55:44.068Z,15.94
2023-05-20T20:59:06.013Z,15.60
2023-05-20T21:02:29.103Z,15.54
2023-05-20T21:05:52.049Z,15.42
2023-05-20T21:09:15.064Z,15.06
2023-05-20T21:12:37.051Z,15.20
2023-05-20T21:15:59.050Z,15.08
2023-05-20T21:19:21.102Z,15.45
2023-05-20T21:22:44.088Z,17.22
2023-05-20T21:26:06.069Z,17.96
2023-05-20T21:29:28.062Z,17.45
2023-05-20T21:32:51.104Z,18.41
2023-05-20T21:36:13.067Z,18.56
2023-05-20T21:39:35.032Z,18.51
2023-05-20T21:43:00.062Z,19.20
2023-05-20T21:46:22.097Z,19.29
2023-05-20T21:49:38.606Z,19.12
2023-05-20T21:52:56.053Z,18.72
2023-05-20T21:56:20.049Z,19.41
2023-05-20T21:59:42.126Z,19.09
2023-05-20T22:03:05.122Z,18.07
2023-05-20T22:06:29.069Z,17.45
2023-05-20T22:09:51.051Z,16.58
2023-05-20T22:13:13.068Z,15.94
2023-05-20T22:16:37.117Z,16.02
2023-05-20T22:20:01.082Z,15.98
2023-05-20T22:23:24.096Z,16.11
2023-05-20T22:26:47.102Z,16.29
2023-05-20T22:30:09.075Z,17.24
2023-05-20T22:33:32.076Z,17.72
2023-05-20T22:36:54.074Z,17.85
2023-05-20T22:40:17.095Z,17.73
2023-05-20T22:43:40.114Z,18.10
2023-05-20T22:47:02.228Z,17.78
2023-05-20T22:50:17.830Z,18.46
2023-05-20T22:53:35.098Z,18.56
2023-05-20T22:57:02.081Z,19.25
2023-05-20T23:00:24.108Z,18.98
2023-05-20T23:03:46.093Z,19.11
2023-05-20T23:07:02.123Z,19.26
2023-05-20T23:10:24.103Z,19.30
2023-05-20T23:13:46.082Z,18.17
2023-05-20T23:17:08.214Z,17.83
2023-05-20T23:20:30.095Z,17.44
2023-05-20T23:23:52.117Z,17.58
2023-05-20T23:27:15.124Z,17.79
2023-05-20T23:30:37.111Z,18.06
2023-05-20T23:34:00.246Z,18.06
2023-05-20T23:37:23.075Z,18.52
2023-05-20T23:40:45.108Z,18.86
2023-05-20T23:44:07.108Z,18.92
2023-05-20T23:47:29.179Z,17.65
2023-05-20T23:50:44.820Z,17.46
2023-05-20T23:54:03.121Z,17.57
2023-05-20T23:57:25.125Z,17.20
